首页
METAR-TAF:

METAR-TAF

机场 :

Haines, 阿拉斯加州, 美国

纬度: 59-15N, 经度: 135-31W, 海拔: 5米

当前天气观测

该预报发布于16分钟前的05:54 UTC
风速8节,风向
温度 11°C
湿度 82%
气压 1006 hPa
能見度: 16.1公里
阴天层高于1000英尺

METAR: PAHN 230554Z AUTO 08008KT 10SM OVC010 11/08 A2971 RMK AO2 SLP064 T01060078 10122 20106 58006 TSNO

时间: 22:10 (06:10 UTC)

预报

该预报发布于48分钟前的05:22 UTC
预报有效从23日的 06点(UTC)到 24日的 06点(UTC)
风速7节,风向
能見度: 10公里
多云层高于1200英尺
阴天层高于6000英尺
附近有阵雨
从 23日的 1800点(UTC)
风速8节,风向西北
能見度: 9.7公里
散云层高于1500英尺
多云层高于2500英尺
阴天层高于4000英尺
小雨
从 23日的 2100点(UTC)
风速10节,风向,有时为18节阵风
能見度: 10公里
多云层高于1500英尺
阴天层高于4000英尺
小雨

TAF: PAHN 230522Z 2306/2406 09007KT P6SM VCSH BKN012 OVC060 FM231800 31008KT 6SM -RA SCT015 BKN025 OVC040 FM232100 08010G18KT P6SM -RA BKN015 OVC040 AMD LTD TO CLD VIS AND WIND

超过4000个机场的气象观测和天气预报(METAR&TAF报告)。

可查询的气象台以黄色和红色小点在地图上表示。

将鼠标移到小点上方,可查看气象台名称。

然后点击查看天气观测和预报。

如需切换地图:点击带黑十字的绿色按钮放大地图;点击带横线的绿色按钮缩小地图;或者点击绿色箭头查看邻近地区的地图。


METAR-TAF: